createdAt,value
2022-12-01T00:04:04.855Z,15.87
2022-12-01T00:09:12.143Z,15.93
2022-12-01T00:14:17.927Z,15.96
2022-12-01T00:19:25.160Z,15.97
2022-12-01T00:24:28.605Z,15.96
2022-12-01T00:29:32.011Z,15.93
2022-12-01T00:34:35.381Z,15.88
2022-12-01T00:39:40.024Z,15.83
2022-12-01T00:44:43.299Z,15.80
2022-12-01T00:49:47.280Z,15.76
2022-12-01T00:54:51.315Z,15.72
2022-12-01T00:59:54.590Z,15.71
2022-12-01T01:04:57.694Z,15.70
2022-12-01T01:10:01.107Z,15.69
2022-12-01T01:15:07.687Z,15.67
2022-12-01T01:20:11.382Z,15.66
2022-12-01T01:25:15.564Z,15.67
2022-12-01T01:30:20.549Z,15.67
2022-12-01T01:35:24.027Z,15.68
2022-12-01T01:40:27.347Z,15.65
2022-12-01T01:45:30.879Z,15.69
2022-12-01T01:50:35.645Z,15.66
2022-12-01T01:55:39.406Z,15.65
2022-12-01T02:00:44.983Z,15.64
2022-12-01T02:05:48.625Z,15.61
2022-12-01T02:11:23.294Z,15.59
2022-12-01T02:16:49.095Z,15.59
2022-12-01T02:22:23.972Z,15.58
2022-12-01T02:27:48.415Z,15.58
2022-12-01T02:33:00.348Z,15.56
2022-12-01T02:38:09.913Z,15.56
2022-12-01T02:43:27.777Z,15.56
2022-12-01T02:48:35.116Z,15.58
2022-12-01T02:53:38.603Z,15.56
2022-12-01T02:58:44.951Z,15.59
2022-12-01T03:04:01.262Z,15.60
2022-12-01T03:09:07.323Z,15.59
2022-12-01T03:14:31.127Z,15.59
2022-12-01T03:19:44.868Z,15.61
2022-12-01T03:24:50.166Z,15.59
2022-12-01T03:29:59.304Z,15.60
2022-12-01T03:35:11.626Z,15.60
2022-12-01T03:40:19.121Z,15.61
2022-12-01T03:45:33.696Z,15.59
2022-12-01T03:50:56.027Z,15.60
2022-12-01T03:56:03.853Z,15.57
2022-12-01T04:01:08.846Z,15.55
2022-12-01T04:06:13.725Z,15.56
2022-12-01T04:11:17.245Z,15.61
2022-12-01T04:16:20.794Z,15.64
2022-12-01T04:21:24.548Z,15.71
2022-12-01T04:26:33.742Z,15.68
2022-12-01T04:31:37.483Z,15.69
2022-12-01T04:36:41.275Z,15.70
2022-12-01T04:41:45.512Z,15.70
2022-12-01T04:46:48.879Z,15.74
2022-12-01T04:51:53.075Z,15.74
2022-12-01T04:56:56.485Z,15.71
2022-12-01T05:02:00.390Z,15.71
2022-12-01T05:07:06.502Z,15.72
2022-12-01T05:12:09.919Z,15.75
2022-12-01T05:17:13.471Z,15.80
2022-12-01T05:22:16.758Z,15.80
2022-12-01T05:27:20.231Z,15.80
2022-12-01T05:32:23.883Z,15.81
2022-12-01T05:37:27.064Z,15.83
2022-12-01T05:42:30.445Z,15.88
2022-12-01T05:47:33.558Z,15.95
2022-12-01T05:52:37.191Z,16.10
2022-12-01T05:57:40.651Z,16.65
2022-12-01T06:02:44.366Z,17.09
2022-12-01T06:07:49.447Z,16.91
2022-12-01T06:12:52.731Z,16.71
2022-12-01T06:17:59.595Z,16.62
2022-12-01T06:23:03.467Z,16.59
2022-12-01T06:28:06.909Z,16.59
2022-12-01T06:33:10.314Z,16.54
2022-12-01T06:38:13.849Z,16.56
2022-12-01T06:43:17.211Z,16.64
2022-12-01T06:48:21.759Z,16.79
2022-12-01T06:53:25.317Z,16.90
2022-12-01T06:58:29.029Z,17.00
2022-12-01T07:03:32.610Z,17.04
2022-12-01T07:08:36.314Z,17.10
2022-12-01T07:13:41.414Z,17.19
2022-12-01T07:18:44.757Z,17.36
2022-12-01T07:23:48.311Z,17.33
2022-12-01T07:28:53.441Z,17.37
2022-12-01T07:33:57.102Z,17.43
2022-12-01T07:39:04.683Z,17.42
2022-12-01T07:44:10.970Z,17.45
2022-12-01T07:49:14.243Z,17.50
2022-12-01T07:54:17.857Z,17.57
2022-12-01T07:59:21.282Z,17.68
2022-12-01T08:04:24.774Z,17.75
2022-12-01T08:09:28.258Z,17.83
2022-12-01T08:14:31.755Z,17.89
2022-12-01T08:19:35.465Z,17.92
2022-12-01T08:24:39.220Z,17.96
2022-12-01T08:29:44.906Z,18.02
2022-12-01T08:34:53.307Z,18.12
2022-12-01T08:39:57.934Z,18.06
2022-12-01T08:45:01.332Z,18.09
2022-12-01T08:50:13.302Z,18.19
2022-12-01T08:55:31.012Z,18.28
2022-12-01T09:00:42.587Z,18.44
2022-12-01T09:05:45.798Z,18.49
2022-12-01T09:10:53.193Z,18.59
2022-12-01T09:16:07.689Z,18.69
2022-12-01T09:21:18.528Z,18.75
2022-12-01T09:26:22.238Z,18.82
2022-12-01T09:31:26.471Z,18.88
2022-12-01T09:36:31.583Z,18.98
2022-12-01T09:41:44.513Z,19.08
2022-12-01T09:46:56.303Z,19.10
2022-12-01T09:52:00.414Z,19.11
2022-12-01T09:57:04.317Z,19.20
2022-12-01T10:02:26.579Z,19.28
2022-12-01T10:08:05.928Z,19.35
2022-12-01T10:13:23.289Z,19.45
2022-12-01T10:18:32.398Z,19.50
2022-12-01T10:24:09.929Z,19.49
2022-12-01T10:29:31.601Z,19.49
2022-12-01T10:34:38.822Z,19.46
2022-12-01T10:39:44.714Z,19.50
2022-12-01T10:44:48.219Z,19.54
2022-12-01T10:49:53.146Z,19.58
2022-12-01T10:54:58.150Z,19.59
2022-12-01T11:00:07.209Z,19.59
2022-12-01T11:05:24.024Z,19.68
2022-12-01T11:10:30.732Z,19.71
2022-12-01T11:15:40.053Z,19.71
2022-12-01T11:20:43.746Z,19.69
2022-12-01T11:25:56.183Z,19.65
2022-12-01T11:31:02.902Z,19.61
2022-12-01T11:36:10.611Z,19.61
2022-12-01T11:41:37.774Z,19.62
2022-12-01T11:46:50.199Z,19.59
2022-12-01T11:52:17.601Z,19.59
2022-12-01T11:57:33.557Z,19.61
2022-12-01T12:03:06.944Z,19.59
2022-12-01T12:08:31.621Z,19.61
2022-12-01T12:14:01.209Z,19.62
2022-12-01T12:19:33.677Z,19.62
2022-12-01T12:25:10.013Z,19.60
2022-12-01T12:30:23.834Z,19.59
2022-12-01T12:35:58.282Z,19.55
2022-12-01T12:41:22.757Z,19.55
2022-12-01T12:46:37.728Z,19.52
2022-12-01T12:52:22.056Z,19.51
2022-12-01T12:57:44.716Z,19.51
2022-12-01T13:03:10.252Z,19.51
2022-12-01T13:08:23.810Z,19.49
2022-12-01T13:13:46.330Z,19.46
2022-12-01T13:19:13.621Z,19.43
2022-12-01T13:24:23.313Z,19.41
2022-12-01T13:29:40.885Z,19.37
2022-12-01T13:34:48.475Z,19.30
2022-12-01T13:39:55.091Z,19.23
2022-12-01T13:45:09.960Z,19.16
2022-12-01T13:50:41.032Z,19.06
2022-12-01T13:56:24.509Z,18.95
2022-12-01T14:01:28.000Z,18.83
2022-12-01T14:06:40.866Z,18.74
2022-12-01T14:11:59.669Z,18.62
2022-12-01T14:17:03.756Z,18.52
2022-12-01T14:22:33.882Z,18.43
2022-12-01T14:27:43.176Z,18.29
2022-12-01T14:32:46.457Z,18.16
2022-12-01T14:37:50.534Z,18.00
2022-12-01T14:42:57.254Z,17.88
2022-12-01T14:48:04.440Z,17.76
2022-12-01T14:53:36.612Z,17.64
2022-12-01T14:58:50.680Z,17.53
2022-12-01T15:03:58.970Z,17.46
2022-12-01T15:14:48.112Z,17.36
2022-12-01T15:19:52.217Z,17.31
2022-12-01T15:25:16.033Z,17.26
2022-12-01T15:30:19.203Z,17.21
2022-12-01T15:35:23.878Z,17.18
2022-12-01T15:45:57.877Z,17.16
2022-12-01T15:51:07.386Z,17.15
2022-12-01T15:56:12.385Z,17.16
2022-12-01T16:01:19.324Z,17.14
2022-12-01T16:06:27.432Z,17.11
2022-12-01T16:11:31.388Z,17.08
2022-12-01T16:16:46.631Z,17.07
2022-12-01T16:21:50.023Z,17.02
2022-12-01T16:26:59.322Z,16.98
2022-12-01T16:32:38.918Z,16.97
2022-12-01T16:37:42.720Z,16.94
2022-12-01T16:42:46.769Z,16.93
2022-12-01T16:47:50.056Z,16.89
2022-12-01T16:52:53.483Z,16.85
2022-12-01T16:57:56.907Z,16.87
2022-12-01T17:03:01.116Z,16.81
2022-12-01T17:08:05.154Z,16.78
2022-12-01T17:13:10.768Z,16.75
2022-12-01T17:18:15.756Z,16.72
2022-12-01T17:23:18.976Z,16.68
2022-12-01T17:28:22.566Z,16.68
2022-12-01T17:33:25.909Z,16.68
2022-12-01T17:38:29.404Z,16.67
2022-12-01T17:43:34.848Z,16.67
2022-12-01T17:48:46.262Z,16.69
2022-12-01T17:53:49.762Z,16.68
2022-12-01T17:58:53.108Z,16.68
2022-12-01T18:03:57.837Z,16.66
2022-12-01T18:09:01.214Z,16.67
2022-12-01T18:14:04.637Z,16.69
2022-12-01T18:19:10.063Z,16.68
2022-12-01T18:24:13.542Z,16.69
2022-12-01T18:29:20.165Z,16.68
2022-12-01T18:34:24.147Z,16.65
2022-12-01T18:39:27.898Z,16.63
2022-12-01T18:44:33.357Z,16.58
2022-12-01T18:49:36.772Z,16.56
2022-12-01T18:54:40.517Z,16.53
2022-12-01T18:59:43.910Z,16.51
2022-12-01T19:04:47.630Z,16.51
2022-12-01T19:09:52.156Z,16.57
2022-12-01T19:14:55.847Z,16.66
2022-12-01T19:20:00.422Z,16.73
2022-12-01T19:25:03.917Z,16.74
2022-12-01T19:30:10.989Z,16.73
2022-12-01T19:35:14.681Z,16.71
2022-12-01T19:40:19.318Z,16.74
2022-12-01T19:45:23.035Z,16.76
2022-12-01T19:50:28.463Z,16.78
2022-12-01T19:55:32.376Z,16.81
2022-12-01T20:00:35.753Z,16.84
2022-12-01T20:05:39.508Z,16.89
2022-12-01T20:10:47.865Z,16.93
2022-12-01T20:15:51.243Z,16.98
2022-12-01T20:21:11.470Z,17.04
2022-12-01T20:26:16.339Z,17.07
2022-12-01T20:31:25.540Z,17.10
2022-12-01T20:36:29.494Z,17.11
2022-12-01T20:41:32.959Z,17.09
2022-12-01T20:46:38.545Z,17.07
2022-12-01T20:51:42.140Z,17.06
2022-12-01T20:56:46.013Z,17.05
2022-12-01T21:01:49.718Z,17.03
2022-12-01T21:06:58.520Z,17.01
2022-12-01T21:12:03.528Z,16.96
2022-12-01T21:17:28.819Z,16.94
2022-12-01T21:22:32.330Z,16.89
2022-12-01T21:27:36.436Z,16.88
2022-12-01T21:32:43.879Z,16.85
2022-12-01T21:37:49.542Z,16.82
2022-12-01T21:42:53.431Z,16.81
2022-12-01T21:48:17.535Z,16.80
2022-12-01T21:53:22.612Z,16.79
2022-12-01T21:58:28.655Z,16.78
2022-12-01T22:03:43.507Z,16.78
2022-12-01T22:08:50.294Z,16.79
2022-12-01T22:14:13.028Z,16.81
2022-12-01T22:19:28.704Z,16.80
2022-12-01T22:24:38.071Z,16.79
2022-12-01T22:29:46.160Z,16.80
2022-12-01T22:34:53.694Z,16.78
2022-12-01T22:39:57.768Z,16.73
2022-12-01T22:45:23.674Z,16.71
2022-12-01T22:50:31.731Z,16.69
2022-12-01T22:55:35.232Z,16.65
2022-12-01T23:00:39.365Z,16.61
2022-12-01T23:05:42.695Z,16.62
2022-12-01T23:10:46.130Z,16.58
2022-12-01T23:15:52.884Z,16.55
2022-12-01T23:20:58.975Z,16.51
2022-12-01T23:26:07.179Z,16.47
2022-12-01T23:31:10.869Z,16.46
2022-12-01T23:36:19.256Z,16.41
2022-12-01T23:41:31.225Z,16.35
2022-12-01T23:46:34.625Z,16.31
2022-12-01T23:51:40.412Z,16.28
2022-12-01T23:56:45.856Z,16.25
